sensor_id;sensor_type;location;lat;lon;timestamp;temperature;humidity
22629;DHT22;11481;53.694;9.910;2022-08-01T00:00:04;19.20;99.90
22629;DHT22;11481;53.694;9.910;2022-08-01T00:02:37;19.30;99.90
22629;DHT22;11481;53.694;9.910;2022-08-01T00:05:06;19.30;99.90
22629;DHT22;11481;53.694;9.910;2022-08-01T00:07:36;19.30;99.90
22629;DHT22;11481;53.694;9.910;2022-08-01T00:10:05;19.30;99.90
22629;DHT22;11481;53.694;9.910;2022-08-01T00:12:32;19.20;99.90
22629;DHT22;11481;53.694;9.910;2022-08-01T00:14:59;19.30;99.90
22629;DHT22;11481;53.694;9.910;2022-08-01T00:17:26;19.30;99.90
22629;DHT22;11481;53.694;9.910;2022-08-01T00:19:53;19.10;99.90
22629;DHT22;11481;53.694;9.910;2022-08-01T00:22:19;19.10;99.90
22629;DHT22;11481;53.694;9.910;2022-08-01T00:24:46;19.10;99.90
22629;DHT22;11481;53.694;9.910;2022-08-01T00:27:13;19.10;99.90
22629;DHT22;11481;53.694;9.910;2022-08-01T00:29:39;19.10;99.90
22629;DHT22;11481;53.694;9.910;2022-08-01T00:32:26;19.00;99.90
22629;DHT22;11481;53.694;9.910;2022-08-01T00:34:53;19.00;99.90
22629;DHT22;11481;53.694;9.910;2022-08-01T00:37:19;19.00;99.90
22629;DHT22;11481;53.694;9.910;2022-08-01T00:39:46;18.90;99.90
22629;DHT22;11481;53.694;9.910;2022-08-01T00:42:13;18.80;99.90
22629;DHT22;11481;53.694;9.910;2022-08-01T00:44:40;18.80;99.90
22629;DHT22;11481;53.694;9.910;2022-08-01T00:47:07;18.80;99.90
22629;DHT22;11481;53.694;9.910;2022-08-01T00:49:34;18.80;99.90
22629;DHT22;11481;53.694;9.910;2022-08-01T00:52:02;18.90;99.90
22629;DHT22;11481;53.694;9.910;2022-08-01T00:54:31;18.90;99.90
22629;DHT22;11481;53.694;9.910;2022-08-01T00:56:58;18.80;99.90
22629;DHT22;11481;53.694;9.910;2022-08-01T00:59:25;18.80;99.90
22629;DHT22;11481;53.694;9.910;2022-08-01T01:01:52;18.80;99.90
22629;DHT22;11481;53.694;9.910;2022-08-01T01:04:20;18.90;99.90
22629;DHT22;11481;53.694;9.910;2022-08-01T01:09:43;18.90;99.90
22629;DHT22;11481;53.694;9.910;2022-08-01T01:12:31;18.90;99.90
22629;DHT22;11481;53.694;9.910;2022-08-01T01:15:33;18.90;99.90
22629;DHT22;11481;53.694;9.910;2022-08-01T01:18:04;18.90;99.90
22629;DHT22;11481;53.694;9.910;2022-08-01T01:20:40;18.90;99.90
22629;DHT22;11481;53.694;9.910;2022-08-01T01:23:31;18.90;99.90
22629;DHT22;11481;53.694;9.910;2022-08-01T01:29:02;18.80;99.90
22629;DHT22;11481;53.694;9.910;2022-08-01T01:31:36;18.70;99.90
22629;DHT22;11481;53.694;9.910;2022-08-01T01:34:08;18.80;99.90
22629;DHT22;11481;53.694;9.910;2022-08-01T01:36:36;18.90;99.90
22629;DHT22;11481;53.694;9.910;2022-08-01T01:39:04;18.80;99.90
22629;DHT22;11481;53.694;9.910;2022-08-01T01:41:31;18.90;99.90
22629;DHT22;11481;53.694;9.910;2022-08-01T01:43:59;18.90;99.90
22629;DHT22;11481;53.694;9.910;2022-08-01T01:46:27;18.80;99.90
22629;DHT22;11481;53.694;9.910;2022-08-01T01:48:55;18.80;99.90
22629;DHT22;11481;53.694;9.910;2022-08-01T01:51:25;18.70;99.90
22629;DHT22;11481;53.694;9.910;2022-08-01T01:53:53;18.60;99.90
22629;DHT22;11481;53.694;9.910;2022-08-01T01:56:22;18.70;99.90
22629;DHT22;11481;53.694;9.910;2022-08-01T01:58:54;18.70;99.90
22629;DHT22;11481;53.694;9.910;2022-08-01T02:01:27;18.60;99.90
22629;DHT22;11481;53.694;9.910;2022-08-01T02:04:14;18.70;99.90
22629;DHT22;11481;53.694;9.910;2022-08-01T02:06:43;18.60;99.90
22629;DHT22;11481;53.694;9.910;2022-08-01T02:09:11;18.70;99.90
22629;DHT22;11481;53.694;9.910;2022-08-01T02:11:40;18.70;99.90
22629;DHT22;11481;53.694;9.910;2022-08-01T02:14:28;18.80;99.90
22629;DHT22;11481;53.694;9.910;2022-08-01T02:16:57;18.70;99.90
22629;DHT22;11481;53.694;9.910;2022-08-01T02:19:24;18.80;99.90
22629;DHT22;11481;53.694;9.910;2022-08-01T02:22:01;18.70;99.90
22629;DHT22;11481;53.694;9.910;2022-08-01T02:27:15;18.70;99.90
22629;DHT22;11481;53.694;9.910;2022-08-01T02:29:54;18.70;99.90
22629;DHT22;11481;53.694;9.910;2022-08-01T02:32:36;18.70;99.90
22629;DHT22;11481;53.694;9.910;2022-08-01T02:35:05;18.60;99.90
22629;DHT22;11481;53.694;9.910;2022-08-01T02:37:36;18.60;99.90
22629;DHT22;11481;53.694;9.910;2022-08-01T02:40:12;18.60;99.90
22629;DHT22;11481;53.694;9.910;2022-08-01T02:42:44;18.60;99.90
22629;DHT22;11481;53.694;9.910;2022-08-01T02:45:12;18.70;99.90
22629;DHT22;11481;53.694;9.910;2022-08-01T02:47:41;18.60;99.90
22629;DHT22;11481;53.694;9.910;2022-08-01T02:50:10;18.70;99.90
22629;DHT22;11481;53.694;9.910;2022-08-01T02:52:40;18.70;99.90
22629;DHT22;11481;53.694;9.910;2022-08-01T02:55:08;18.70;99.90
22629;DHT22;11481;53.694;9.910;2022-08-01T02:57:36;18.70;99.90
22629;DHT22;11481;53.694;9.910;2022-08-01T03:00:18;18.70;99.90
22629;DHT22;11481;53.694;9.910;2022-08-01T03:02:51;18.70;99.90
22629;DHT22;11481;53.694;9.910;2022-08-01T03:05:21;18.70;99.90
22629;DHT22;11481;53.694;9.910;2022-08-01T03:07:49;18.60;99.90
22629;DHT22;11481;53.694;9.910;2022-08-01T03:10:16;18.60;99.90
22629;DHT22;11481;53.694;9.910;2022-08-01T03:12:44;18.60;99.90
22629;DHT22;11481;53.694;9.910;2022-08-01T03:15:14;18.60;99.90
22629;DHT22;11481;53.694;9.910;2022-08-01T03:17:43;18.60;99.90
22629;DHT22;11481;53.694;9.910;2022-08-01T03:20:13;18.60;99.90
22629;DHT22;11481;53.694;9.910;2022-08-01T03:22:41;18.50;99.90
22629;DHT22;11481;53.694;9.910;2022-08-01T03:25:09;18.50;99.90
22629;DHT22;11481;53.694;9.910;2022-08-01T03:27:37;18.50;99.90
22629;DHT22;11481;53.694;9.910;2022-08-01T03:30:05;18.50;99.90
22629;DHT22;11481;53.694;9.910;2022-08-01T03:32:33;18.60;99.90
22629;DHT22;11481;53.694;9.910;2022-08-01T03:35:00;18.50;99.90
22629;DHT22;11481;53.694;9.910;2022-08-01T03:37:32;18.50;99.90
22629;DHT22;11481;53.694;9.910;2022-08-01T03:40:04;18.50;99.90
22629;DHT22;11481;53.694;9.910;2022-08-01T03:42:35;18.50;99.90
22629;DHT22;11481;53.694;9.910;2022-08-01T03:45:14;18.50;99.90
22629;DHT22;11481;53.694;9.910;2022-08-01T03:47:43;18.50;99.90
22629;DHT22;11481;53.694;9.910;2022-08-01T03:50:11;18.50;99.90
22629;DHT22;11481;53.694;9.910;2022-08-01T03:52:42;18.60;99.90
22629;DHT22;11481;53.694;9.910;2022-08-01T03:55:11;18.50;99.90
22629;DHT22;11481;53.694;9.910;2022-08-01T03:57:38;18.50;99.90
22629;DHT22;11481;53.694;9.910;2022-08-01T04:00:06;18.60;99.90
22629;DHT22;11481;53.694;9.910;2022-08-01T04:02:35;18.60;99.90
22629;DHT22;11481;53.694;9.910;2022-08-01T04:05:03;18.70;99.90
22629;DHT22;11481;53.694;9.910;2022-08-01T04:07:33;18.60;99.90
22629;DHT22;11481;53.694;9.910;2022-08-01T04:10:03;18.60;99.90
22629;DHT22;11481;53.694;9.910;2022-08-01T04:12:29;18.60;99.90
22629;DHT22;11481;53.694;9.910;2022-08-01T04:14:56;18.70;99.90
22629;DHT22;11481;53.694;9.910;2022-08-01T04:17:23;18.70;99.90
22629;DHT22;11481;53.694;9.910;2022-08-01T04:19:49;18.60;99.90
22629;DHT22;11481;53.694;9.910;2022-08-01T04:22:17;18.60;99.90
22629;DHT22;11481;53.694;9.910;2022-08-01T04:24:47;18.60;99.90
22629;DHT22;11481;53.694;9.910;2022-08-01T04:27:27;18.60;99.90
22629;DHT22;11481;53.694;9.910;2022-08-01T04:30:18;18.60;99.90
22629;DHT22;11481;53.694;9.910;2022-08-01T04:32:48;18.60;99.90
22629;DHT22;11481;53.694;9.910;2022-08-01T04:35:18;18.50;99.90
22629;DHT22;11481;53.694;9.910;2022-08-01T04:38:05;18.50;99.90
22629;DHT22;11481;53.694;9.910;2022-08-01T04:40:33;18.40;99.90
22629;DHT22;11481;53.694;9.910;2022-08-01T04:43:02;18.40;99.90
22629;DHT22;11481;53.694;9.910;2022-08-01T04:45:29;18.30;99.90
22629;DHT22;11481;53.694;9.910;2022-08-01T04:47:57;18.30;99.90
22629;DHT22;11481;53.694;9.910;2022-08-01T04:50:24;18.20;99.90
22629;DHT22;11481;53.694;9.910;2022-08-01T04:52:50;18.20;99.90
22629;DHT22;11481;53.694;9.910;2022-08-01T04:55:18;18.10;99.90
22629;DHT22;11481;53.694;9.910;2022-08-01T04:57:46;18.10;99.90
22629;DHT22;11481;53.694;9.910;2022-08-01T05:00:15;18.10;99.90
22629;DHT22;11481;53.694;9.910;2022-08-01T05:02:43;18.20;99.90
22629;DHT22;11481;53.694;9.910;2022-08-01T05:05:09;18.20;99.90
22629;DHT22;11481;53.694;9.910;2022-08-01T05:07:39;18.10;99.90
22629;DHT22;11481;53.694;9.910;2022-08-01T05:10:11;18.10;99.90
22629;DHT22;11481;53.694;9.910;2022-08-01T05:12:37;18.10;99.90
22629;DHT22;11481;53.694;9.910;2022-08-01T05:15:05;18.20;99.90
22629;DHT22;11481;53.694;9.910;2022-08-01T05:17:40;18.10;99.90
22629;DHT22;11481;53.694;9.910;2022-08-01T05:20:09;18.10;99.90
22629;DHT22;11481;53.694;9.910;2022-08-01T05:22:36;18.20;99.90
22629;DHT22;11481;53.694;9.910;2022-08-01T05:25:03;18.20;99.90
22629;DHT22;11481;53.694;9.910;2022-08-01T05:27:31;18.20;99.90
22629;DHT22;11481;53.694;9.910;2022-08-01T05:29:59;18.20;99.90
22629;DHT22;11481;53.694;9.910;2022-08-01T05:32:25;18.30;99.90
22629;DHT22;11481;53.694;9.910;2022-08-01T05:34:53;18.30;99.90
22629;DHT22;11481;53.694;9.910;2022-08-01T05:37:21;18.40;99.90
22629;DHT22;11481;53.694;9.910;2022-08-01T05:39:47;18.30;99.90
22629;DHT22;11481;53.694;9.910;2022-08-01T05:42:14;18.30;99.90
22629;DHT22;11481;53.694;9.910;2022-08-01T05:44:41;18.30;99.90
22629;DHT22;11481;53.694;9.910;2022-08-01T05:47:07;18.30;99.90
22629;DHT22;11481;53.694;9.910;2022-08-01T05:49:34;18.20;99.90
22629;DHT22;11481;53.694;9.910;2022-08-01T05:52:01;18.10;99.90
22629;DHT22;11481;53.694;9.910;2022-08-01T05:54:28;18.10;99.90
22629;DHT22;11481;53.694;9.910;2022-08-01T05:56:55;18.10;99.90
22629;DHT22;11481;53.694;9.910;2022-08-01T05:59:26;18.00;99.90
22629;DHT22;11481;53.694;9.910;2022-08-01T06:01:52;17.90;99.90
22629;DHT22;11481;53.694;9.910;2022-08-01T06:04:19;18.00;99.90
22629;DHT22;11481;53.694;9.910;2022-08-01T06:06:46;18.20;99.90
22629;DHT22;11481;53.694;9.910;2022-08-01T06:09:13;18.00;99.90
22629;DHT22;11481;53.694;9.910;2022-08-01T06:11:40;18.00;99.90
22629;DHT22;11481;53.694;9.910;2022-08-01T06:14:07;18.10;99.90
22629;DHT22;11481;53.694;9.910;2022-08-01T06:16:33;18.00;99.90
22629;DHT22;11481;53.694;9.910;2022-08-01T06:19:00;18.00;99.90
22629;DHT22;11481;53.694;9.910;2022-08-01T06:21:27;17.90;99.90
22629;DHT22;11481;53.694;9.910;2022-08-01T06:23:53;17.90;99.90
22629;DHT22;11481;53.694;9.910;2022-08-01T06:26:20;17.80;99.90
22629;DHT22;11481;53.694;9.910;2022-08-01T06:28:47;18.00;99.90
22629;DHT22;11481;53.694;9.910;2022-08-01T06:31:13;18.00;99.90
22629;DHT22;11481;53.694;9.910;2022-08-01T06:33:41;17.90;99.90
22629;DHT22;11481;53.694;9.910;2022-08-01T06:36:08;17.90;99.90
22629;DHT22;11481;53.694;9.910;2022-08-01T06:38:35;18.00;99.90
22629;DHT22;11481;53.694;9.910;2022-08-01T06:41:02;18.10;99.90
22629;DHT22;11481;53.694;9.910;2022-08-01T06:43:29;18.20;99.90
22629;DHT22;11481;53.694;9.910;2022-08-01T06:45:56;18.20;99.90
22629;DHT22;11481;53.694;9.910;2022-08-01T06:48:22;18.30;99.90
22629;DHT22;11481;53.694;9.910;2022-08-01T06:50:49;18.00;99.90
22629;DHT22;11481;53.694;9.910;2022-08-01T06:53:37;17.90;99.90
22629;DHT22;11481;53.694;9.910;2022-08-01T06:56:05;17.90;99.90
22629;DHT22;11481;53.694;9.910;2022-08-01T06:58:33;18.00;99.90
22629;DHT22;11481;53.694;9.910;2022-08-01T07:01:02;17.90;99.90
22629;DHT22;11481;53.694;9.910;2022-08-01T07:03:30;17.90;99.90
22629;DHT22;11481;53.694;9.910;2022-08-01T07:06:17;17.90;99.90
22629;DHT22;11481;53.694;9.910;2022-08-01T07:08:44;18.00;99.90
22629;DHT22;11481;53.694;9.910;2022-08-01T07:11:10;17.80;99.90
22629;DHT22;11481;53.694;9.910;2022-08-01T07:13:37;17.70;99.90
22629;DHT22;11481;53.694;9.910;2022-08-01T07:16:12;17.60;99.90
22629;DHT22;11481;53.694;9.910;2022-08-01T07:18:39;17.70;99.90
22629;DHT22;11481;53.694;9.910;2022-08-01T07:21:06;17.60;99.90
22629;DHT22;11481;53.694;9.910;2022-08-01T07:23:44;17.70;99.90
22629;DHT22;11481;53.694;9.910;2022-08-01T07:26:11;17.70;99.90
22629;DHT22;11481;53.694;9.910;2022-08-01T07:28:39;17.70;99.90
22629;DHT22;11481;53.694;9.910;2022-08-01T07:31:09;17.70;99.90
22629;DHT22;11481;53.694;9.910;2022-08-01T07:33:36;17.80;99.90
22629;DHT22;11481;53.694;9.910;2022-08-01T07:36:15;17.80;99.90
22629;DHT22;11481;53.694;9.910;2022-08-01T07:38:42;17.90;99.90
22629;DHT22;11481;53.694;9.910;2022-08-01T07:41:08;18.00;99.90
22629;DHT22;11481;53.694;9.910;2022-08-01T07:43:35;17.70;99.90
22629;DHT22;11481;53.694;9.910;2022-08-01T07:46:03;17.80;99.90
22629;DHT22;11481;53.694;9.910;2022-08-01T07:48:30;17.90;99.90
22629;DHT22;11481;53.694;9.910;2022-08-01T07:50:57;17.90;99.90
22629;DHT22;11481;53.694;9.910;2022-08-01T07:53:23;17.90;99.90
22629;DHT22;11481;53.694;9.910;2022-08-01T07:55:50;17.70;99.90
22629;DHT22;11481;53.694;9.910;2022-08-01T07:58:17;17.70;99.90
22629;DHT22;11481;53.694;9.910;2022-08-01T08:00:44;17.70;99.90
22629;DHT22;11481;53.694;9.910;2022-08-01T08:03:10;17.60;99.90
22629;DHT22;11481;53.694;9.910;2022-08-01T08:05:37;17.60;99.90
22629;DHT22;11481;53.694;9.910;2022-08-01T08:08:24;17.40;99.90
22629;DHT22;11481;53.694;9.910;2022-08-01T08:10:51;17.50;99.90
22629;DHT22;11481;53.694;9.910;2022-08-01T08:13:18;17.50;99.90
22629;DHT22;11481;53.694;9.910;2022-08-01T08:15:46;17.50;99.90
22629;DHT22;11481;53.694;9.910;2022-08-01T08:18:14;17.60;99.90
22629;DHT22;11481;53.694;9.910;2022-08-01T08:20:43;17.70;99.90
22629;DHT22;11481;53.694;9.910;2022-08-01T08:23:10;17.60;99.90
22629;DHT22;11481;53.694;9.910;2022-08-01T08:26:10;17.40;99.90
22629;DHT22;11481;53.694;9.910;2022-08-01T08:28:37;17.40;99.90
22629;DHT22;11481;53.694;9.910;2022-08-01T08:31:06;17.80;99.90
22629;DHT22;11481;53.694;9.910;2022-08-01T08:33:51;18.00;99.90
22629;DHT22;11481;53.694;9.910;2022-08-01T08:36:18;18.20;99.90
22629;DHT22;11481;53.694;9.910;2022-08-01T08:38:45;18.30;99.90
22629;DHT22;11481;53.694;9.910;2022-08-01T08:41:12;18.40;99.90
22629;DHT22;11481;53.694;9.910;2022-08-01T08:43:46;18.40;99.90
22629;DHT22;11481;53.694;9.910;2022-08-01T08:46:14;18.60;99.90
22629;DHT22;11481;53.694;9.910;2022-08-01T08:48:41;18.50;99.90
22629;DHT22;11481;53.694;9.910;2022-08-01T08:51:09;18.20;99.90
22629;DHT22;11481;53.694;9.910;2022-08-01T08:53:40;18.20;99.90
22629;DHT22;11481;53.694;9.910;2022-08-01T08:56:13;18.50;99.90
22629;DHT22;11481;53.694;9.910;2022-08-01T08:58:44;18.40;99.90
22629;DHT22;11481;53.694;9.910;2022-08-01T09:01:12;18.60;99.90
22629;DHT22;11481;53.694;9.910;2022-08-01T09:03:40;18.90;99.90
22629;DHT22;11481;53.694;9.910;2022-08-01T09:06:07;19.00;99.90
22629;DHT22;11481;53.694;9.910;2022-08-01T09:08:35;19.20;99.90
22629;DHT22;11481;53.694;9.910;2022-08-01T09:11:02;19.20;99.90
22629;DHT22;11481;53.694;9.910;2022-08-01T09:13:29;19.10;99.90
22629;DHT22;11481;53.694;9.910;2022-08-01T09:15:56;19.20;99.90
22629;DHT22;11481;53.694;9.910;2022-08-01T09:18:37;19.10;99.90
22629;DHT22;11481;53.694;9.910;2022-08-01T09:21:18;19.10;99.90
22629;DHT22;11481;53.694;9.910;2022-08-01T09:23:50;19.10;99.90
22629;DHT22;11481;53.694;9.910;2022-08-01T09:26:31;19.10;99.90
22629;DHT22;11481;53.694;9.910;2022-08-01T09:29:04;19.10;99.90
22629;DHT22;11481;53.694;9.910;2022-08-01T09:31:40;19.30;99.90
22629;DHT22;11481;53.694;9.910;2022-08-01T09:34:13;19.70;99.90
22629;DHT22;11481;53.694;9.910;2022-08-01T09:36:52;19.60;99.90
22629;DHT22;11481;53.694;9.910;2022-08-01T09:39:26;19.70;99.90
22629;DHT22;11481;53.694;9.910;2022-08-01T09:41:54;19.70;99.90
22629;DHT22;11481;53.694;9.910;2022-08-01T09:44:42;19.70;99.90
22629;DHT22;11481;53.694;9.910;2022-08-01T09:47:21;19.60;99.90
22629;DHT22;11481;53.694;9.910;2022-08-01T09:50:12;19.80;99.90
22629;DHT22;11481;53.694;9.910;2022-08-01T09:52:39;19.80;99.90
22629;DHT22;11481;53.694;9.910;2022-08-01T09:55:07;19.80;99.90
22629;DHT22;11481;53.694;9.910;2022-08-01T09:57:34;19.90;99.90
22629;DHT22;11481;53.694;9.910;2022-08-01T10:00:01;19.90;99.90
22629;DHT22;11481;53.694;9.910;2022-08-01T10:02:33;20.10;99.90
22629;DHT22;11481;53.694;9.910;2022-08-01T10:05:08;20.10;99.90
22629;DHT22;11481;53.694;9.910;2022-08-01T10:07:54;20.00;99.90
22629;DHT22;11481;53.694;9.910;2022-08-01T10:10:23;20.00;99.90
22629;DHT22;11481;53.694;9.910;2022-08-01T10:12:55;20.30;99.90
22629;DHT22;11481;53.694;9.910;2022-08-01T10:15:24;20.50;99.90
22629;DHT22;11481;53.694;9.910;2022-08-01T10:18:05;20.50;99.90
22629;DHT22;11481;53.694;9.910;2022-08-01T10:20:52;20.60;99.90
22629;DHT22;11481;53.694;9.910;2022-08-01T10:23:25;20.60;99.90
22629;DHT22;11481;53.694;9.910;2022-08-01T10:26:07;20.50;99.90
22629;DHT22;11481;53.694;9.910;2022-08-01T10:28:35;20.40;99.90
22629;DHT22;11481;53.694;9.910;2022-08-01T10:31:07;20.50;99.90
22629;DHT22;11481;53.694;9.910;2022-08-01T10:33:39;20.40;99.90
22629;DHT22;11481;53.694;9.910;2022-08-01T10:36:21;20.50;99.90
22629;DHT22;11481;53.694;9.910;2022-08-01T10:38:52;20.50;99.90
22629;DHT22;11481;53.694;9.910;2022-08-01T10:41:18;20.60;99.90
22629;DHT22;11481;53.694;9.910;2022-08-01T10:43:45;20.60;99.90
22629;DHT22;11481;53.694;9.910;2022-08-01T10:46:13;20.80;99.90
22629;DHT22;11481;53.694;9.910;2022-08-01T10:51:27;21.00;99.90
22629;DHT22;11481;53.694;9.910;2022-08-01T10:54:14;21.20;99.90
22629;DHT22;11481;53.694;9.910;2022-08-01T10:56:46;21.00;99.90
22629;DHT22;11481;53.694;9.910;2022-08-01T10:59:20;20.60;99.90
22629;DHT22;11481;53.694;9.910;2022-08-01T11:02:07;20.50;99.90
22629;DHT22;11481;53.694;9.910;2022-08-01T11:07:22;21.00;99.90
22629;DHT22;11481;53.694;9.910;2022-08-01T11:10:19;21.30;99.90
22629;DHT22;11481;53.694;9.910;2022-08-01T11:12:49;21.40;99.90
22629;DHT22;11481;53.694;9.910;2022-08-01T11:15:18;21.40;99.90
22629;DHT22;11481;53.694;9.910;2022-08-01T11:17:56;21.60;99.90
22629;DHT22;11481;53.694;9.910;2022-08-01T11:20:31;21.40;99.90
22629;DHT22;11481;53.694;9.910;2022-08-01T11:28:28;21.10;99.90
22629;DHT22;11481;53.694;9.910;2022-08-01T11:38:48;21.20;99.90
22629;DHT22;11481;53.694;9.910;2022-08-01T11:41:26;21.00;99.90
22629;DHT22;11481;53.694;9.910;2022-08-01T11:44:05;21.00;99.90
22629;DHT22;11481;53.694;9.910;2022-08-01T11:47:01;20.90;99.90
22629;DHT22;11481;53.694;9.910;2022-08-01T11:49:47;21.10;99.90
22629;DHT22;11481;53.694;9.910;2022-08-01T11:52:33;21.40;99.90
22629;DHT22;11481;53.694;9.910;2022-08-01T11:57:31;21.30;99.90
22629;DHT22;11481;53.694;9.910;2022-08-01T12:00:21;21.20;99.90
22629;DHT22;11481;53.694;9.910;2022-08-01T12:02:58;21.20;99.90
22629;DHT22;11481;53.694;9.910;2022-08-01T12:05:27;21.40;99.90
22629;DHT22;11481;53.694;9.910;2022-08-01T12:07:57;21.60;99.90
22629;DHT22;11481;53.694;9.910;2022-08-01T12:10:29;21.60;99.90
22629;DHT22;11481;53.694;9.910;2022-08-01T12:13:00;21.30;99.90
22629;DHT22;11481;53.694;9.910;2022-08-01T12:15:35;21.30;99.90
22629;DHT22;11481;53.694;9.910;2022-08-01T12:18:04;21.10;99.90
22629;DHT22;11481;53.694;9.910;2022-08-01T12:20:38;21.10;99.90
22629;DHT22;11481;53.694;9.910;2022-08-01T12:23:19;21.10;99.90
22629;DHT22;11481;53.694;9.910;2022-08-01T12:25:51;21.30;99.90
22629;DHT22;11481;53.694;9.910;2022-08-01T12:28:18;21.10;99.90
22629;DHT22;11481;53.694;9.910;2022-08-01T12:30:47;21.20;99.90
22629;DHT22;11481;53.694;9.910;2022-08-01T12:33:18;21.30;99.90
22629;DHT22;11481;53.694;9.910;2022-08-01T12:35:45;21.50;99.90
22629;DHT22;11481;53.694;9.910;2022-08-01T12:38:17;21.70;99.90
22629;DHT22;11481;53.694;9.910;2022-08-01T12:40:47;21.70;99.90
22629;DHT22;11481;53.694;9.910;2022-08-01T12:43:24;21.40;99.90
22629;DHT22;11481;53.694;9.910;2022-08-01T12:45:57;21.20;99.90
22629;DHT22;11481;53.694;9.910;2022-08-01T12:48:25;21.30;99.90
22629;DHT22;11481;53.694;9.910;2022-08-01T12:50:52;21.20;99.90
22629;DHT22;11481;53.694;9.910;2022-08-01T12:53:20;21.10;99.90
22629;DHT22;11481;53.694;9.910;2022-08-01T12:55:50;21.10;99.90
22629;DHT22;11481;53.694;9.910;2022-08-01T12:58:33;21.20;99.90
22629;DHT22;11481;53.694;9.910;2022-08-01T13:01:08;21.20;99.90
22629;DHT22;11481;53.694;9.910;2022-08-01T13:03:35;21.30;99.90
22629;DHT22;11481;53.694;9.910;2022-08-01T13:06:13;21.10;99.90
22629;DHT22;11481;53.694;9.910;2022-08-01T13:08:42;21.20;99.90
22629;DHT22;11481;53.694;9.910;2022-08-01T13:11:14;21.20;99.90
22629;DHT22;11481;53.694;9.910;2022-08-01T13:13:48;21.20;99.90
22629;DHT22;11481;53.694;9.910;2022-08-01T13:16:17;21.10;99.90
22629;DHT22;11481;53.694;9.910;2022-08-01T13:19:04;21.00;99.90
22629;DHT22;11481;53.694;9.910;2022-08-01T13:21:31;21.40;99.90
22629;DHT22;11481;53.694;9.910;2022-08-01T13:24:31;21.60;99.90
22629;DHT22;11481;53.694;9.910;2022-08-01T13:27:00;21.30;99.90
22629;DHT22;11481;53.694;9.910;2022-08-01T13:29:36;21.30;99.90
22629;DHT22;11481;53.694;9.910;2022-08-01T13:32:18;21.30;99.90
22629;DHT22;11481;53.694;9.910;2022-08-01T13:35:07;21.30;99.90
22629;DHT22;11481;53.694;9.910;2022-08-01T13:37:36;21.40;99.90
22629;DHT22;11481;53.694;9.910;2022-08-01T13:40:05;21.40;99.90
22629;DHT22;11481;53.694;9.910;2022-08-01T13:42:32;21.40;99.90
22629;DHT22;11481;53.694;9.910;2022-08-01T13:45:00;21.20;99.90
22629;DHT22;11481;53.694;9.910;2022-08-01T13:47:29;21.20;99.90
22629;DHT22;11481;53.694;9.910;2022-08-01T13:49:58;21.30;99.90
22629;DHT22;11481;53.694;9.910;2022-08-01T13:52:27;21.10;99.90
22629;DHT22;11481;53.694;9.910;2022-08-01T13:54:53;21.10;99.90
22629;DHT22;11481;53.694;9.910;2022-08-01T13:57:20;21.00;99.90
22629;DHT22;11481;53.694;9.910;2022-08-01T13:59:48;20.90;99.90
22629;DHT22;11481;53.694;9.910;2022-08-01T14:02:14;21.00;99.90
22629;DHT22;11481;53.694;9.910;2022-08-01T14:04:41;21.30;99.90
22629;DHT22;11481;53.694;9.910;2022-08-01T14:07:08;21.60;99.90
22629;DHT22;11481;53.694;9.910;2022-08-01T14:09:41;21.50;99.90
22629;DHT22;11481;53.694;9.910;2022-08-01T14:12:28;21.60;99.90
22629;DHT22;11481;53.694;9.910;2022-08-01T14:14:55;21.60;99.90
22629;DHT22;11481;53.694;9.910;2022-08-01T14:17:22;21.50;99.90
22629;DHT22;11481;53.694;9.910;2022-08-01T14:19:49;21.10;99.90
22629;DHT22;11481;53.694;9.910;2022-08-01T14:22:16;21.00;99.90
22629;DHT22;11481;53.694;9.910;2022-08-01T14:24:42;21.00;99.90
22629;DHT22;11481;53.694;9.910;2022-08-01T14:27:10;21.10;99.90
22629;DHT22;11481;53.694;9.910;2022-08-01T14:29:36;21.30;99.90
22629;DHT22;11481;53.694;9.910;2022-08-01T14:32:23;21.40;99.90
22629;DHT22;11481;53.694;9.910;2022-08-01T14:34:54;21.50;99.90
22629;DHT22;11481;53.694;9.910;2022-08-01T14:37:22;21.50;99.90
22629;DHT22;11481;53.694;9.910;2022-08-01T14:39:56;21.30;99.90
22629;DHT22;11481;53.694;9.910;2022-08-01T14:42:24;21.30;99.90
22629;DHT22;11481;53.694;9.910;2022-08-01T14:44:51;21.40;99.90
22629;DHT22;11481;53.694;9.910;2022-08-01T14:47:18;21.70;99.90
22629;DHT22;11481;53.694;9.910;2022-08-01T14:49:48;21.60;99.90
22629;DHT22;11481;53.694;9.910;2022-08-01T14:52:15;21.70;99.90
22629;DHT22;11481;53.694;9.910;2022-08-01T14:54:42;21.60;99.90
22629;DHT22;11481;53.694;9.910;2022-08-01T14:57:09;21.20;99.90
22629;DHT22;11481;53.694;9.910;2022-08-01T14:59:36;21.00;99.90
22629;DHT22;11481;53.694;9.910;2022-08-01T15:02:03;21.00;99.90
22629;DHT22;11481;53.694;9.910;2022-08-01T15:04:30;21.20;99.90
22629;DHT22;11481;53.694;9.910;2022-08-01T15:06:57;21.20;99.90
22629;DHT22;11481;53.694;9.910;2022-08-01T15:09:23;21.00;99.90
22629;DHT22;11481;53.694;9.910;2022-08-01T15:11:50;21.20;99.90
22629;DHT22;11481;53.694;9.910;2022-08-01T15:14:17;21.30;99.90
22629;DHT22;11481;53.694;9.910;2022-08-01T15:17:02;21.10;99.90
22629;DHT22;11481;53.694;9.910;2022-08-01T15:19:29;21.20;99.90
22629;DHT22;11481;53.694;9.910;2022-08-01T15:21:55;21.50;99.90
22629;DHT22;11481;53.694;9.910;2022-08-01T15:24:22;21.50;99.90
22629;DHT22;11481;53.694;9.910;2022-08-01T15:26:49;21.30;99.90
22629;DHT22;11481;53.694;9.910;2022-08-01T15:29:16;21.20;99.90
22629;DHT22;11481;53.694;9.910;2022-08-01T15:31:43;21.20;99.90
22629;DHT22;11481;53.694;9.910;2022-08-01T15:34:10;21.20;99.90
22629;DHT22;11481;53.694;9.910;2022-08-01T15:36:37;21.30;99.90
22629;DHT22;11481;53.694;9.910;2022-08-01T15:39:07;21.30;99.90
22629;DHT22;11481;53.694;9.910;2022-08-01T15:41:35;21.30;99.90
22629;DHT22;11481;53.694;9.910;2022-08-01T15:44:01;21.30;99.90
22629;DHT22;11481;53.694;9.910;2022-08-01T15:46:28;21.20;99.90
22629;DHT22;11481;53.694;9.910;2022-08-01T15:48:55;21.30;99.90
22629;DHT22;11481;53.694;9.910;2022-08-01T15:51:21;21.50;99.90
22629;DHT22;11481;53.694;9.910;2022-08-01T15:53:48;21.70;99.90
22629;DHT22;11481;53.694;9.910;2022-08-01T15:56:15;21.90;99.90
22629;DHT22;11481;53.694;9.910;2022-08-01T15:58:42;21.90;99.90
22629;DHT22;11481;53.694;9.910;2022-08-01T16:01:08;21.90;99.90
22629;DHT22;11481;53.694;9.910;2022-08-01T16:03:35;22.10;99.90
22629;DHT22;11481;53.694;9.910;2022-08-01T16:06:02;22.00;99.90
22629;DHT22;11481;53.694;9.910;2022-08-01T16:08:28;22.10;99.90
22629;DHT22;11481;53.694;9.910;2022-08-01T16:10:55;22.00;99.90
22629;DHT22;11481;53.694;9.910;2022-08-01T16:13:22;21.80;99.90
22629;DHT22;11481;53.694;9.910;2022-08-01T16:15:48;21.70;99.90
22629;DHT22;11481;53.694;9.910;2022-08-01T16:18:15;21.40;99.90
22629;DHT22;11481;53.694;9.910;2022-08-01T16:20:42;21.80;99.90